Time;durP1;ratioP1;P1;durP2;ratioP2;P2;SDS_P1;SDS_P2;PMS_P1;PMS_P2;Temp;Humidity;BMP_temperature;BMP_pressure;BME280_temperature;BME280_humidity;BME280_pressure;Samples;Min_cycle;Max_cycle;Signal;HPM_P1;HPM_P2
2023/02/21 02:15:11;;;;;;;6.63;2.67;;;;;;;;;;5052814;28;20059;-79
2023/02/21 02:17:37;;;;;;;5.32;2.92;;;;;;;;;;5051329;28;20060;-78
2023/02/21 02:20:06;;;;;;;6.40;3.05;;;;;;;;;;5055718;28;20057;-79
2023/02/21 02:22:48;;;;;;;4.68;2.50;;;;;;;;;;5053187;28;20057;-79
2023/02/21 02:25:33;;;;;;;4.47;2.53;;;;;;;;;;5052467;28;20045;-80
2023/02/21 02:28:03;;;;;;;5.53;3.30;;;;;;;;;;5031944;28;20046;-79
2023/02/21 02:30:48;;;;;;;5.50;3.20;;;;;;;;;;5014680;28;20280;-79
2023/02/21 02:33:21;;;;;;;7.22;3.67;;;;;;;;;;5018387;28;20081;-79
2023/02/21 02:35:52;;;;;;;6.05;2.92;;;;;;;;;;5014797;28;20041;-80
2023/02/21 02:38:21;;;;;;;5.35;2.63;;;;;;;;;;5031682;28;20053;-78
2023/02/21 02:40:58;;;;;;;5.32;2.72;;;;;;;;;;5033262;28;20057;-78
2023/02/21 02:43:32;;;;;;;9.85;3.08;;;;;;;;;;5033764;28;20053;-80
2023/02/21 02:46:12;;;;;;;5.68;2.55;;;;;;;;;;5033298;28;20171;-80
2023/02/21 02:48:42;;;;;;;4.85;2.33;;;;;;;;;;5032922;28;20052;-80
2023/02/21 02:51:10;;;;;;;7.85;2.80;;;;;;;;;;5015999;28;20417;-79
2023/02/21 02:53:37;;;;;;;6.18;2.60;;;;;;;;;;5035823;28;20054;-81
2023/02/21 02:56:05;;;;;;;5.07;2.42;;;;;;;;;;5034650;28;20390;-79
2023/02/21 02:58:33;;;;;;;6.63;2.60;;;;;;;;;;5034664;28;20084;-80
2023/02/21 03:00:59;;;;;;;5.35;2.70;;;;;;;;;;5017138;28;20249;-81
2023/02/21 03:03:37;;;;;;;6.70;2.58;;;;;;;;;;5033766;28;20061;-80
2023/02/21 03:06:07;;;;;;;5.93;2.67;;;;;;;;;;5033063;28;20061;-79
2023/02/21 03:09:01;;;;;;;5.78;2.60;;;;;;;;;;5032822;28;20422;-78
2023/02/21 03:11:29;;;;;;;3.88;2.28;;;;;;;;;;5016032;28;20119;-81
2023/02/21 03:13:58;;;;;;;5.47;2.70;;;;;;;;;;5033040;28;20080;-79
2023/02/21 03:16:25;;;;;;;5.70;3.00;;;;;;;;;;5032944;28;20045;-80
2023/02/21 03:18:51;;;;;;;5.97;2.30;;;;;;;;;;5033601;28;20422;-80
2023/02/21 03:21:23;;;;;;;5.65;2.65;;;;;;;;;;5033343;28;20045;-80
2023/02/21 03:23:51;;;;;;;6.05;2.53;;;;;;;;;;5033260;28;20055;-80
2023/02/21 03:26:18;;;;;;;5.03;2.70;;;;;;;;;;5037965;28;20037;-80
2023/02/21 03:28:45;;;;;;;5.25;2.63;;;;;;;;;;5053698;28;20084;-79
2023/02/21 03:31:13;;;;;;;6.78;2.83;;;;;;;;;;5053874;28;20498;-80
2023/02/21 03:33:40;;;;;;;6.97;2.80;;;;;;;;;;5034590;28;20083;-79
2023/02/21 03:36:07;;;;;;;4.97;2.47;;;;;;;;;;5051753;28;20571;-79
2023/02/21 03:38:34;;;;;;;6.25;2.83;;;;;;;;;;5053592;28;20055;-80
2023/02/21 03:41:00;;;;;;;5.60;2.90;;;;;;;;;;5046419;28;20117;-79
2023/02/21 03:43:27;;;;;;;7.78;2.88;;;;;;;;;;5072963;28;20118;-79
2023/02/21 03:45:53;;;;;;;4.43;2.60;;;;;;;;;;5072186;28;20112;-79
2023/02/21 03:48:20;;;;;;;4.75;2.30;;;;;;;;;;5062932;28;20052;-80
2023/02/21 03:50:57;;;;;;;6.32;2.72;;;;;;;;;;5054814;28;20117;-80
2023/02/21 03:53:26;;;;;;;9.48;2.53;;;;;;;;;;5054264;28;20059;-80
2023/02/21 03:55:53;;;;;;;4.85;2.55;;;;;;;;;;5053650;28;20045;-80
2023/02/21 03:58:19;;;;;;;4.95;2.88;;;;;;;;;;5036142;28;20088;-80
2023/02/21 04:00:46;;;;;;;7.70;2.75;;;;;;;;;;5053312;28;20508;-81
2023/02/21 04:03:12;;;;;;;5.80;2.90;;;;;;;;;;5054022;28;20076;-80
2023/02/21 04:05:39;;;;;;;5.95;2.67;;;;;;;;;;5053194;28;20139;-80
2023/02/21 04:08:06;;;;;;;5.38;2.45;;;;;;;;;;5051326;28;20045;-80
2023/02/21 04:10:35;;;;;;;6.13;2.55;;;;;;;;;;5052238;28;20102;-80
2023/02/21 04:13:18;;;;;;;7.78;2.80;;;;;;;;;;5053272;28;20040;-80
2023/02/21 04:15:44;;;;;;;4.82;2.42;;;;;;;;;;5053003;28;20493;-79
2023/02/21 04:18:11;;;;;;;6.25;2.72;;;;;;;;;;5052107;28;20053;-80
2023/02/21 04:20:37;;;;;;;6.78;2.88;;;;;;;;;;5053211;28;20131;-81
2023/02/21 04:23:03;;;;;;;5.80;2.85;;;;;;;;;;5034594;28;20136;-80
2023/02/21 04:25:30;;;;;;;5.82;2.58;;;;;;;;;;5052152;28;20049;-81
2023/02/21 04:27:56;;;;;;;4.57;2.53;;;;;;;;;;5033015;28;20049;-82
2023/02/21 04:30:23;;;;;;;6.80;3.08;;;;;;;;;;5018316;28;20049;-80
2023/02/21 04:32:50;;;;;;;6.20;3.13;;;;;;;;;;5045234;28;20110;-80
2023/02/21 04:35:16;;;;;;;9.75;3.65;;;;;;;;;;5048388;28;20046;-78
2023/02/21 04:37:43;;;;;;;7.22;3.35;;;;;;;;;;5048265;28;20146;-78
2023/02/21 04:40:10;;;;;;;8.70;3.42;;;;;;;;;;5049048;28;20064;-79
2023/02/21 04:42:37;;;;;;;6.07;3.30;;;;;;;;;;5049302;28;20249;-79
2023/02/21 04:45:03;;;;;;;7.38;3.90;;;;;;;;;;5050996;28;20073;-82
2023/02/21 04:47:30;;;;;;;8.90;4.13;;;;;;;;;;5042001;28;20099;-79
2023/02/21 04:49:57;;;;;;;9.20;4.45;;;;;;;;;;5048468;28;20044;-80
2023/02/21 04:52:24;;;;;;;9.45;4.38;;;;;;;;;;5050643;28;20055;-80
2023/02/21 04:54:50;;;;;;;8.43;4.15;;;;;;;;;;5042178;28;20055;-79
2023/02/21 04:57:19;;;;;;;11.07;4.68;;;;;;;;;;5051229;28;20073;-80
2023/02/21 04:59:45;;;;;;;8.80;4.15;;;;;;;;;;5051185;28;20033;-80
2023/02/21 05:02:11;;;;;;;10.98;4.38;;;;;;;;;;5044098;28;20045;-80
2023/02/21 05:04:38;;;;;;;7.60;4.25;;;;;;;;;;5034768;28;20077;-80
2023/02/21 05:07:04;;;;;;;10.20;4.88;;;;;;;;;;5014439;28;20050;-79
2023/02/21 05:09:31;;;;;;;7.80;4.03;;;;;;;;;;5032863;28;20050;-80
2023/02/21 05:11:58;;;;;;;11.63;4.47;;;;;;;;;;5034100;28;20121;-80
2023/02/21 05:14:24;;;;;;;8.80;4.30;;;;;;;;;;5034195;28;20133;-80
2023/02/21 05:16:51;;;;;;;12.23;5.13;;;;;;;;;;5033543;28;20148;-80
2023/02/21 05:19:25;;;;;;;9.75;4.80;;;;;;;;;;5032635;28;20673;-80
2023/02/21 05:21:56;;;;;;;9.97;4.63;;;;;;;;;;5033807;28;20478;-80
2023/02/21 05:24:23;;;;;;;7.68;4.20;;;;;;;;;;5033133;28;20414;-80
2023/02/21 05:26:50;;;;;;;9.60;4.22;;;;;;;;;;5046402;28;20056;-80
2023/02/21 05:29:18;;;;;;;10.25;4.35;;;;;;;;;;5054859;28;20041;-80
2023/02/21 05:31:45;;;;;;;9.65;4.20;;;;;;;;;;5056853;28;20052;-79
2023/02/21 05:34:12;;;;;;;9.30;5.05;;;;;;;;;;5038717;28;20432;-80
2023/02/21 05:36:39;;;;;;;8.95;4.68;;;;;;;;;;5053461;28;20073;-81
2023/02/21 05:39:06;;;;;;;11.23;5.50;;;;;;;;;;5052993;28;20053;-79
2023/02/21 05:41:34;;;;;;;12.70;5.18;;;;;;;;;;5058097;28;20048;-79
2023/02/21 05:44:01;;;;;;;10.02;5.15;;;;;;;;;;5061643;28;20591;-78
2023/02/21 05:46:29;;;;;;;8.90;4.35;;;;;;;;;;5063950;28;20086;-78
2023/02/21 05:48:57;;;;;;;8.05;4.68;;;;;;;;;;5058137;28;20136;-80
2023/02/21 05:51:24;;;;;;;10.00;4.63;;;;;;;;;;5040538;28;20049;-82
2023/02/21 05:53:50;;;;;;;9.63;4.88;;;;;;;;;;5058941;28;20049;-80
2023/02/21 05:56:17;;;;;;;9.05;4.32;;;;;;;;;;5057687;28;20135;-79
2023/02/21 05:58:44;;;;;;;8.75;4.70;;;;;;;;;;5057916;28;20318;-80
2023/02/21 06:01:10;;;;;;;11.15;4.25;;;;;;;;;;5057202;28;20156;-79
2023/02/21 06:03:37;;;;;;;10.18;4.57;;;;;;;;;;5057001;28;20053;-80
2023/02/21 06:06:03;;;;;;;9.00;4.40;;;;;;;;;;5038518;28;20147;-80
2023/02/21 06:08:30;;;;;;;8.85;4.63;;;;;;;;;;5055552;28;20053;-80
2023/02/21 06:10:56;;;;;;;10.77;4.40;;;;;;;;;;5056188;28;20113;-80
2023/02/21 06:13:23;;;;;;;11.52;4.50;;;;;;;;;;5056617;28;20048;-81
2023/02/21 06:15:49;;;;;;;12.07;4.60;;;;;;;;;;5055752;28;20158;-79
2023/02/21 06:18:16;;;;;;;10.75;4.55;;;;;;;;;;5054966;28;20130;-80
2023/02/21 06:20:43;;;;;;;8.32;4.55;;;;;;;;;;5054927;28;20167;-80
2023/02/21 06:23:09;;;;;;;11.20;4.35;;;;;;;;;;5038339;28;20060;-81
2023/02/21 06:25:35;;;;;;;10.32;4.57;;;;;;;;;;5056324;28;20429;-79
2023/02/21 06:28:02;;;;;;;10.68;4.63;;;;;;;;;;5026264;28;20045;-79
2023/02/21 06:30:29;;;;;;;8.93;4.10;;;;;;;;;;5037313;28;20457;-80
2023/02/21 06:32:55;;;;;;;12.65;5.45;;;;;;;;;;5036225;28;20054;-80
2023/02/21 06:35:21;;;;;;;10.38;4.78;;;;;;;;;;5034921;28;20068;-80
2023/02/21 06:37:48;;;;;;;10.75;4.85;;;;;;;;;;5033866;28;20053;-79
2023/02/21 06:40:14;;;;;;;13.18;5.22;;;;;;;;;;5034084;28;20433;-80
2023/02/21 06:42:41;;;;;;;11.95;5.22;;;;;;;;;;5041414;28;20084;-79
2023/02/21 06:45:07;;;;;;;11.25;5.43;;;;;;;;;;5050393;28;20061;-79
2023/02/21 06:47:34;;;;;;;13.30;5.40;;;;;;;;;;5049476;28;20041;-80
2023/02/21 06:50:00;;;;;;;11.02;5.70;;;;;;;;;;5051188;28;20048;-79
2023/02/21 06:52:27;;;;;;;12.95;5.85;;;;;;;;;;5039401;28;20042;-79
2023/02/21 06:54:53;;;;;;;12.25;6.07;;;;;;;;;;5034320;28;20068;-82
2023/02/21 06:57:22;;;;;;;14.23;5.57;;;;;;;;;;5033105;28;20041;-80
2023/02/21 06:59:49;;;;;;;11.35;5.93;;;;;;;;;;5034581;28;20060;-81
2023/02/21 07:02:19;;;;;;;13.63;5.70;;;;;;;;;;5034754;28;20059;-80
2023/02/21 07:04:46;;;;;;;12.52;6.20;;;;;;;;;;5034195;28;20053;-80
2023/02/21 07:07:13;;;;;;;15.50;5.80;;;;;;;;;;5033760;28;20100;-81
2023/02/21 07:09:39;;;;;;;15.60;6.07;;;;;;;;;;5034157;28;20378;-80
2023/02/21 07:12:07;;;;;;;15.27;6.60;;;;;;;;;;5034562;28;20045;-81
2023/02/21 07:14:35;;;;;;;13.43;6.13;;;;;;;;;;5034399;28;20045;-80
2023/02/21 07:17:01;;;;;;;12.98;6.60;;;;;;;;;;5033567;28;20125;-79
2023/02/21 07:19:28;;;;;;;14.23;6.22;;;;;;;;;;5033208;28;20428;-80
2023/02/21 07:21:54;;;;;;;13.57;6.45;;;;;;;;;;5034626;28;20053;-82
2023/02/21 07:24:20;;;;;;;12.85;5.90;;;;;;;;;;5034042;28;20053;-80
2023/02/21 07:26:47;;;;;;;11.00;6.15;;;;;;;;;;5043660;28;20063;-80
2023/02/21 07:29:13;;;;;;;13.25;6.47;;;;;;;;;;5036583;28;20144;-80
2023/02/21 07:31:40;;;;;;;13.48;6.82;;;;;;;;;;5054021;28;20365;-79
2023/02/21 07:34:07;;;;;;;15.98;7.30;;;;;;;;;;5054166;28;20061;-79
2023/02/21 07:36:35;;;;;;;16.50;6.53;;;;;;;;;;5052834;28;20454;-80
2023/02/21 07:39:05;;;;;;;13.95;6.30;;;;;;;;;;5052794;28;20077;-79
2023/02/21 07:41:34;;;;;;;14.20;6.38;;;;;;;;;;5053823;28;20049;-82
2023/02/21 07:44:00;;;;;;;13.20;6.38;;;;;;;;;;5054420;28;20071;-81
2023/02/21 07:46:27;;;;;;;13.18;6.45;;;;;;;;;;5054192;28;20041;-81
2023/02/21 07:48:54;;;;;;;13.70;6.57;;;;;;;;;;5054245;28;20354;-80
2023/02/21 07:51:21;;;;;;;15.45;6.93;;;;;;;;;;5054155;28;20076;-82
2023/02/21 07:53:47;;;;;;;15.10;6.93;;;;;;;;;;5056375;28;20133;-79
2023/02/21 07:56:14;;;;;;;13.00;6.60;;;;;;;;;;5056383;28;20127;-80
2023/02/21 07:58:40;;;;;;;14.30;6.93;;;;;;;;;;5054337;28;20059;-79
2023/02/21 08:01:07;;;;;;;15.30;7.18;;;;;;;;;;5054606;28;20059;-80
2023/02/21 08:03:33;;;;;;;14.38;7.68;;;;;;;;;;5052265;28;20123;-80
2023/02/21 08:06:00;;;;;;;14.05;7.65;;;;;;;;;;5053566;28;20406;-81
2023/02/21 08:08:26;;;;;;;15.27;7.22;;;;;;;;;;5053340;28;20436;-81
2023/02/21 08:10:53;;;;;;;14.60;7.13;;;;;;;;;;5054399;28;20045;-80
2023/02/21 08:13:19;;;;;;;14.93;6.95;;;;;;;;;;5054080;28;20144;-79
2023/02/21 08:15:45;;;;;;;17.33;7.53;;;;;;;;;;5052867;28;20053;-79
2023/02/21 08:18:18;;;;;;;15.23;6.82;;;;;;;;;;5049630;28;20144;-79
2023/02/21 08:20:44;;;;;;;13.88;6.45;;;;;;;;;;5055239;28;20108;-80
2023/02/21 08:23:10;;;;;;;12.68;6.65;;;;;;;;;;5051432;28;20053;-81
2023/02/21 08:25:37;;;;;;;15.15;7.57;;;;;;;;;;5054482;28;20053;-79
2023/02/21 08:28:04;;;;;;;14.25;7.07;;;;;;;;;;5035707;28;20049;-79
2023/02/21 08:30:30;;;;;;;12.70;6.65;;;;;;;;;;5032482;28;20048;-79
2023/02/21 08:32:57;;;;;;;13.80;6.35;;;;;;;;;;5031393;28;20053;-80
2023/02/21 08:35:23;;;;;;;15.65;6.80;;;;;;;;;;5030358;28;20517;-79
2023/02/21 08:37:50;;;;;;;16.48;7.05;;;;;;;;;;5030795;28;20052;-79
2023/02/21 08:40:19;;;;;;;13.85;6.53;;;;;;;;;;5030978;28;20076;-81
2023/02/21 08:42:50;;;;;;;15.20;6.90;;;;;;;;;;5032007;28;20447;-81
2023/02/21 08:45:17;;;;;;;14.65;6.90;;;;;;;;;;5031611;28;20053;-79
2023/02/21 08:47:44;;;;;;;14.90;6.53;;;;;;;;;;5030812;28;20053;-80
2023/02/21 08:50:11;;;;;;;14.20;6.68;;;;;;;;;;5030868;28;20119;-80
2023/02/21 08:52:38;;;;;;;13.65;6.72;;;;;;;;;;5031132;28;20049;-80
2023/02/21 08:55:07;;;;;;;15.15;6.32;;;;;;;;;;5014068;28;20049;-79
2023/02/21 08:57:34;;;;;;;14.45;6.63;;;;;;;;;;5032210;28;20080;-78
2023/02/21 09:00:00;;;;;;;15.98;6.55;;;;;;;;;;5031585;28;20057;-79
2023/02/21 09:02:27;;;;;;;13.32;6.60;;;;;;;;;;5033563;28;20134;-78
2023/02/21 09:04:54;;;;;;;13.25;6.60;;;;;;;;;;5032895;28;20045;-79
2023/02/21 09:07:21;;;;;;;14.98;6.75;;;;;;;;;;5014224;28;20060;-80
2023/02/21 09:09:48;;;;;;;14.88;6.78;;;;;;;;;;5031448;28;20045;-80
2023/02/21 09:12:14;;;;;;;12.63;6.78;;;;;;;;;;5032408;28;20046;-80
2023/02/21 09:14:41;;;;;;;15.57;7.47;;;;;;;;;;5035954;28;20063;-81
2023/02/21 09:17:09;;;;;;;18.85;7.25;;;;;;;;;;5034655;28;20521;-80
2023/02/21 09:19:35;;;;;;;12.95;6.68;;;;;;;;;;5034715;28;20085;-80
2023/02/21 09:22:03;;;;;;;13.10;6.88;;;;;;;;;;5034870;28;20322;-80
2023/02/21 09:24:29;;;;;;;16.27;7.47;;;;;;;;;;5035305;28;20127;-80
2023/02/21 09:27:06;;;;;;;14.13;6.85;;;;;;;;;;5035877;28;20049;-81
2023/02/21 09:29:33;;;;;;;13.25;6.80;;;;;;;;;;5018486;28;20108;-79
2023/02/21 09:32:11;;;;;;;15.98;7.45;;;;;;;;;;5036517;28;20079;-80
2023/02/21 09:34:38;;;;;;;11.93;6.07;;;;;;;;;;5021899;28;20456;-80
2023/02/21 09:37:05;;;;;;;14.45;6.95;;;;;;;;;;5050354;28;20093;-79
2023/02/21 09:39:31;;;;;;;12.18;6.13;;;;;;;;;;5034350;28;20273;-78
2023/02/21 09:41:58;;;;;;;12.75;6.20;;;;;;;;;;5051980;28;20140;-80
2023/02/21 09:44:26;;;;;;;12.23;5.97;;;;;;;;;;5044766;28;20136;-80
2023/02/21 09:47:01;;;;;;;13.77;6.80;;;;;;;;;;5045570;28;20053;-80
2023/02/21 09:49:30;;;;;;;10.60;6.00;;;;;;;;;;5020067;28;20563;-81
2023/02/21 09:51:57;;;;;;;10.98;5.65;;;;;;;;;;5038369;28;20076;-80
2023/02/21 09:54:24;;;;;;;13.30;6.50;;;;;;;;;;5021101;28;20053;-81
2023/02/21 09:56:50;;;;;;;11.80;5.85;;;;;;;;;;5040926;28;20059;-80
2023/02/21 09:59:16;;;;;;;14.73;6.22;;;;;;;;;;5040656;28;20059;-81
2023/02/21 10:01:46;;;;;;;12.02;5.78;;;;;;;;;;5042285;28;20049;-81
2023/02/21 10:04:18;;;;;;;13.57;5.80;;;;;;;;;;5040463;28;20160;-81
2023/02/21 10:07:03;;;;;;;11.43;5.03;;;;;;;;;;5037682;28;20049;-81
2023/02/21 10:09:35;;;;;;;9.68;5.10;;;;;;;;;;5039720;28;20050;-81
2023/02/21 10:12:20;;;;;;;10.48;5.00;;;;;;;;;;5041439;28;20076;-79
2023/02/21 10:14:47;;;;;;;10.23;4.95;;;;;;;;;;5021860;28;20397;-80
2023/02/21 10:17:23;;;;;;;10.82;4.95;;;;;;;;;;5037432;28;20046;-80
2023/02/21 10:19:51;;;;;;;10.25;4.47;;;;;;;;;;5034312;28;20049;-82
2023/02/21 10:22:19;;;;;;;9.75;4.90;;;;;;;;;;5017048;28;20080;-81
2023/02/21 10:24:48;;;;;;;8.80;4.43;;;;;;;;;;5035036;28;20053;-80
2023/02/21 10:27:19;;;;;;;8.80;4.13;;;;;;;;;;5047032;28;20078;-81
2023/02/21 10:29:54;;;;;;;7.22;4.07;;;;;;;;;;5054014;28;20473;-82
2023/02/21 10:32:21;;;;;;;6.95;4.03;;;;;;;;;;5053795;28;20585;-81
2023/02/21 10:34:48;;;;;;;10.13;4.38;;;;;;;;;;5035333;28;20056;-81
2023/02/21 10:37:37;;;;;;;10.25;3.90;;;;;;;;;;5052703;28;20069;-81
2023/02/21 10:40:06;;;;;;;6.80;3.92;;;;;;;;;;5054042;28;20088;-81
2023/02/21 10:42:41;;;;;;;9.02;4.10;;;;;;;;;;5055846;28;20056;-81
2023/02/21 10:45:08;;;;;;;7.80;3.70;;;;;;;;;;5056083;28;20088;-82
2023/02/21 10:47:47;;;;;;;6.32;3.58;;;;;;;;;;5056659;28;20049;-81
2023/02/21 10:50:14;;;;;;;8.10;3.88;;;;;;;;;;5054468;28;20428;-80
2023/02/21 10:52:47;;;;;;;6.93;3.72;;;;;;;;;;5056042;28;20057;-80
2023/02/21 10:55:19;;;;;;;6.10;3.35;;;;;;;;;;5053764;28;20540;-80
2023/02/21 10:58:04;;;;;;;6.57;3.10;;;;;;;;;;5038471;28;20516;-79
2023/02/21 11:00:36;;;;;;;6.72;3.60;;;;;;;;;;5054266;28;20052;-80
2023/02/21 11:03:21;;;;;;;6.05;3.00;;;;;;;;;;5054027;28;20453;-79
2023/02/21 11:05:51;;;;;;;10.93;3.15;;;;;;;;;;5053696;28;20052;-80
2023/02/21 11:08:39;;;;;;;6.72;3.20;;;;;;;;;;5053746;28;20052;-81
2023/02/21 11:11:06;;;;;;;6.60;3.55;;;;;;;;;;5054694;28;20478;-81
2023/02/21 11:13:34;;;;;;;5.50;2.92;;;;;;;;;;5067789;28;20079;-80
2023/02/21 11:16:17;;;;;;;6.07;3.17;;;;;;;;;;5068810;28;20053;-79
2023/02/21 11:18:44;;;;;;;5.07;3.00;;;;;;;;;;5068341;28;20042;-79
2023/02/21 11:21:17;;;;;;;6.07;3.08;;;;;;;;;;5067471;28;20052;-80
2023/02/21 11:23:50;;;;;;;5.93;3.05;;;;;;;;;;5054491;28;20055;-80
2023/02/21 11:26:16;;;;;;;6.80;3.45;;;;;;;;;;5047281;28;20101;-79
2023/02/21 11:28:43;;;;;;;6.25;2.65;;;;;;;;;;5015009;28;20060;-79
2023/02/21 11:31:19;;;;;;;7.07;3.53;;;;;;;;;;5032826;28;20049;-79
2023/02/21 11:33:51;;;;;;;6.55;3.40;;;;;;;;;;5031814;28;20508;-80
2023/02/21 11:36:20;;;;;;;6.90;2.95;;;;;;;;;;5032130;28;20042;-80
2023/02/21 11:39:03;;;;;;;6.68;3.10;;;;;;;;;;5031353;28;20045;-80
2023/02/21 11:41:43;;;;;;;6.53;3.30;;;;;;;;;;5032211;28;20049;-80
2023/02/21 11:44:34;;;;;;;6.50;3.38;;;;;;;;;;5032651;28;20049;-81
2023/02/21 11:47:15;;;;;;;7.80;3.88;;;;;;;;;;5009553;28;20076;-79
2023/02/21 11:49:44;;;;;;;7.10;3.50;;;;;;;;;;5034101;28;20474;-81
2023/02/21 11:52:19;;;;;;;7.70;3.58;;;;;;;;;;5031901;28;20478;-79
2023/02/21 11:54:46;;;;;;;6.57;3.42;;;;;;;;;;5032244;28;20054;-79
2023/02/21 11:57:15;;;;;;;7.20;3.72;;;;;;;;;;5031896;28;20068;-80
2023/02/21 11:59:41;;;;;;;6.95;3.22;;;;;;;;;;5033769;28;20152;-80
2023/02/21 12:02:10;;;;;;;8.98;3.75;;;;;;;;;;5041131;28;20136;-80
2023/02/21 12:05:06;;;;;;;7.78;3.92;;;;;;;;;;5048213;28;20053;-79
2023/02/21 12:07:51;;;;;;;8.10;3.55;;;;;;;;;;4978595;28;20102;-79
2023/02/21 12:10:37;;;;;;;6.60;3.67;;;;;;;;;;5046353;28;20050;-79
2023/02/21 12:13:17;;;;;;;10.17;3.77;;;;;;;;;;5032820;28;20409;-80
2023/02/21 12:15:46;;;;;;;7.25;3.85;;;;;;;;;;5031830;28;20292;-80
2023/02/21 12:18:34;;;;;;;8.55;4.05;;;;;;;;;;5013406;28;20237;-80
2023/02/21 12:21:23;;;;;;;6.88;3.42;;;;;;;;;;5031398;28;20067;-80
2023/02/21 12:24:13;;;;;;;7.85;3.70;;;;;;;;;;5014656;28;20053;-80
2023/02/21 12:26:48;;;;;;;7.60;3.47;;;;;;;;;;5040052;28;20064;-80
2023/02/21 12:29:14;;;;;;;7.63;4.03;;;;;;;;;;5067698;28;20045;-79
2023/02/21 12:31:49;;;;;;;8.32;3.63;;;;;;;;;;5064600;28;20287;-80
2023/02/21 12:34:16;;;;;;;6.40;3.50;;;;;;;;;;5051433;28;20055;-79
2023/02/21 12:36:44;;;;;;;7.65;4.20;;;;;;;;;;5051273;28;20151;-79
2023/02/21 12:39:13;;;;;;;8.32;4.18;;;;;;;;;;5053223;28;20049;-79
2023/02/21 12:41:48;;;;;;;9.15;4.80;;;;;;;;;;5053106;28;20056;-79
2023/02/21 12:44:23;;;;;;;10.60;5.03;;;;;;;;;;5052633;28;20075;-80
2023/02/21 12:46:55;;;;;;;15.65;4.45;;;;;;;;;;5053218;28;20124;-80
2023/02/21 12:49:25;;;;;;;9.00;4.10;;;;;;;;;;5053125;28;20128;-80
2023/02/21 12:52:01;;;;;;;9.85;4.80;;;;;;;;;;5056330;28;20053;-79
2023/02/21 12:54:27;;;;;;;10.00;4.50;;;;;;;;;;5037007;28;20132;-80
2023/02/21 12:57:00;;;;;;;11.48;4.35;;;;;;;;;;5038035;28;20052;-80
2023/02/21 12:59:29;;;;;;;18.10;5.43;;;;;;;;;;5054933;28;20063;-79
2023/02/21 13:02:02;;;;;;;11.32;4.53;;;;;;;;;;5056013;28;20135;-79
2023/02/21 13:04:31;;;;;;;14.38;4.70;;;;;;;;;;5054939;28;20068;-79
2023/02/21 13:07:06;;;;;;;10.40;4.68;;;;;;;;;;5056115;28;20139;-79
2023/02/21 13:09:58;;;;;;;7.78;4.35;;;;;;;;;;5055270;28;20120;-80
2023/02/21 13:12:32;;;;;;;9.70;4.57;;;;;;;;;;5035875;28;20072;-79
2023/02/21 13:15:09;;;;;;;10.52;5.18;;;;;;;;;;5055835;28;20067;-80
2023/02/21 13:17:35;;;;;;;10.45;5.22;;;;;;;;;;5054644;28;20059;-79
2023/02/21 13:20:06;;;;;;;12.15;5.43;;;;;;;;;;5037120;28;20091;-80
2023/02/21 13:25:42;;;;;;;11.02;5.22;;;;;;;;;;5056830;28;20124;-80
2023/02/21 13:28:14;;;;;;;8.57;4.15;;;;;;;;;;5043238;28;20053;-78
2023/02/21 13:30:45;;;;;;;9.32;4.80;;;;;;;;;;5039211;28;20365;-79
2023/02/21 13:33:23;;;;;;;9.27;4.63;;;;;;;;;;5035128;28;20083;-80
2023/02/21 13:35:50;;;;;;;7.63;4.05;;;;;;;;;;5034282;28;20076;-82
2023/02/21 13:38:17;;;;;;;9.55;5.18;;;;;;;;;;5034361;28;20061;-81
2023/02/21 13:40:51;;;;;;;10.20;4.70;;;;;;;;;;5035073;28;20064;-81
2023/02/21 13:43:27;;;;;;;8.55;4.65;;;;;;;;;;5035029;28;20071;-81
2023/02/21 13:46:14;;;;;;;8.32;4.35;;;;;;;;;;5036222;28;20324;-81
2023/02/21 13:48:40;;;;;;;9.63;4.22;;;;;;;;;;5035171;28;20057;-81
2023/02/21 13:51:27;;;;;;;8.50;4.32;;;;;;;;;;5035229;28;20081;-80
2023/02/21 13:54:08;;;;;;;10.10;4.22;;;;;;;;;;5034320;28;20050;-80
2023/02/21 13:56:42;;;;;;;8.55;3.95;;;;;;;;;;5035899;28;20049;-81
2023/02/21 13:59:32;;;;;;;9.43;4.60;;;;;;;;;;5037380;28;20045;-80
2023/02/21 14:02:21;;;;;;;10.18;4.35;;;;;;;;;;5023111;28;20403;-80
2023/02/21 14:04:54;;;;;;;9.98;3.80;;;;;;;;;;5033516;28;20046;-79
2023/02/21 14:07:39;;;;;;;9.18;3.72;;;;;;;;;;5033681;28;20592;-80
2023/02/21 14:10:16;;;;;;;8.37;3.70;;;;;;;;;;5035150;28;20053;-79
2023/02/21 14:12:43;;;;;;;7.28;4.10;;;;;;;;;;5034730;28;20045;-80
2023/02/21 14:15:10;;;;;;;8.73;4.07;;;;;;;;;;5035148;28;20477;-80
2023/02/21 14:17:36;;;;;;;6.00;3.78;;;;;;;;;;5035089;28;20053;-79
2023/02/21 14:20:04;;;;;;;8.20;4.20;;;;;;;;;;5018156;28;20148;-79
2023/02/21 14:22:31;;;;;;;8.48;4.05;;;;;;;;;;5035695;28;20037;-79
2023/02/21 14:25:04;;;;;;;6.40;3.78;;;;;;;;;;5030783;28;20089;-79
2023/02/21 14:27:32;;;;;;;7.05;3.97;;;;;;;;;;5047913;28;20389;-79
2023/02/21 14:30:01;;;;;;;6.68;3.67;;;;;;;;;;5053381;28;20045;-79
2023/02/21 14:32:37;;;;;;;7.95;3.58;;;;;;;;;;5052262;28;20204;-79
2023/02/21 14:35:19;;;;;;;6.80;3.65;;;;;;;;;;5052248;28;20427;-81
2023/02/21 14:37:54;;;;;;;6.55;3.60;;;;;;;;;;5051693;28;20049;-79
2023/02/21 14:40:33;;;;;;;6.53;3.50;;;;;;;;;;5051941;28;20379;-79
2023/02/21 14:43:18;;;;;;;8.05;3.70;;;;;;;;;;5054374;28;20143;-80
2023/02/21 14:45:44;;;;;;;8.18;3.47;;;;;;;;;;5060404;28;20053;-81
2023/02/21 14:48:14;;;;;;;7.28;4.00;;;;;;;;;;5066594;28;20067;-80
2023/02/21 14:50:59;;;;;;;8.43;3.63;;;;;;;;;;5070407;28;20048;-81
2023/02/21 14:53:44;;;;;;;8.15;3.58;;;;;;;;;;5060319;28;20051;-81
2023/02/21 14:56:22;;;;;;;6.25;3.53;;;;;;;;;;5055509;28;20052;-79
2023/02/21 14:58:49;;;;;;;6.85;3.38;;;;;;;;;;5059011;28;20132;-81
2023/02/21 15:01:15;;;;;;;7.47;3.60;;;;;;;;;;5058639;28;20509;-81
2023/02/21 15:03:45;;;;;;;7.40;3.65;;;;;;;;;;5060945;28;20083;-80
2023/02/21 15:06:17;;;;;;;6.05;3.15;;;;;;;;;;5057654;28;20049;-81
2023/02/21 15:08:44;;;;;;;6.35;3.65;;;;;;;;;;5041574;28;20052;-81
2023/02/21 15:11:26;;;;;;;6.78;3.63;;;;;;;;;;5063217;28;20045;-81
2023/02/21 15:14:12;;;;;;;10.82;3.75;;;;;;;;;;5061758;28;20041;-81
2023/02/21 15:16:49;;;;;;;7.78;3.70;;;;;;;;;;5061096;28;20076;-80
2023/02/21 15:19:24;;;;;;;8.57;4.05;;;;;;;;;;5059916;28;20049;-81
2023/02/21 15:22:06;;;;;;;7.82;4.18;;;;;;;;;;5043016;28;20087;-80
2023/02/21 15:24:34;;;;;;;7.03;3.70;;;;;;;;;;5061077;28;20080;-80
2023/02/21 15:27:11;;;;;;;7.75;3.65;;;;;;;;;;5052794;28;20116;-80
2023/02/21 15:29:38;;;;;;;8.32;3.70;;;;;;;;;;5043379;28;20057;-81
2023/02/21 15:32:05;;;;;;;8.40;3.58;;;;;;;;;;5049219;28;20033;-80
2023/02/21 15:34:33;;;;;;;7.25;3.70;;;;;;;;;;5048440;28;20042;-82
2023/02/21 15:37:12;;;;;;;6.63;3.22;;;;;;;;;;5026608;28;20088;-78
2023/02/21 15:39:42;;;;;;;7.95;3.33;;;;;;;;;;5041814;28;20429;-82
2023/02/21 15:42:10;;;;;;;6.22;3.35;;;;;;;;;;5039997;28;20056;-82
2023/02/21 15:44:39;;;;;;;6.05;3.53;;;;;;;;;;5036041;28;20080;-79
2023/02/21 15:47:16;;;;;;;7.72;3.70;;;;;;;;;;5035634;28;20417;-80
2023/02/21 15:49:44;;;;;;;7.05;3.80;;;;;;;;;;5036190;28;20145;-79
2023/02/21 15:52:29;;;;;;;7.30;3.63;;;;;;;;;;5034065;28;20144;-79
2023/02/21 15:55:12;;;;;;;8.07;3.83;;;;;;;;;;5015917;28;20103;-79
2023/02/21 15:57:39;;;;;;;6.38;3.35;;;;;;;;;;5033350;28;20045;-79
2023/02/21 16:00:22;;;;;;;7.88;3.60;;;;;;;;;;5034101;28;20105;-79
2023/02/21 16:02:48;;;;;;;7.65;3.75;;;;;;;;;;5034180;28;20472;-79
2023/02/21 16:05:41;;;;;;;8.73;3.53;;;;;;;;;;5034662;28;20071;-80
2023/02/21 16:08:12;;;;;;;6.63;3.42;;;;;;;;;;5029635;28;20053;-80
2023/02/21 16:10:40;;;;;;;6.97;3.22;;;;;;;;;;5033149;28;20522;-79
2023/02/21 16:13:06;;;;;;;9.55;3.60;;;;;;;;;;5033311;28;20077;-79
2023/02/21 16:15:34;;;;;;;7.22;3.53;;;;;;;;;;5033398;28;20045;-79
2023/02/21 16:18:07;;;;;;;8.38;3.72;;;;;;;;;;5032083;28;20054;-79
2023/02/21 16:20:38;;;;;;;6.10;3.28;;;;;;;;;;5031851;28;20079;-79
2023/02/21 16:23:22;;;;;;;7.75;3.85;;;;;;;;;;5034333;28;20092;-80
2023/02/21 16:25:55;;;;;;;6.25;3.50;;;;;;;;;;5017306;28;20061;-79
2023/02/21 16:28:22;;;;;;;9.25;3.90;;;;;;;;;;5052726;28;20120;-80
2023/02/21 16:30:49;;;;;;;8.68;4.28;;;;;;;;;;5053384;28;20056;-79
2023/02/21 16:33:15;;;;;;;8.88;4.18;;;;;;;;;;5052798;28;20045;-80
2023/02/21 16:35:42;;;;;;;10.45;3.97;;;;;;;;;;5052610;28;20047;-80
2023/02/21 16:38:12;;;;;;;8.00;3.97;;;;;;;;;;5053256;28;20321;-79
2023/02/21 16:40:38;;;;;;;11.18;4.45;;;;;;;;;;5055433;28;20404;-79
2023/02/21 16:43:05;;;;;;;9.63;4.68;;;;;;;;;;5056064;28;20056;-82
2023/02/21 16:45:31;;;;;;;9.88;4.53;;;;;;;;;;5060445;28;20045;-80
2023/02/21 16:48:00;;;;;;;8.38;4.25;;;;;;;;;;5057709;28;20045;-80
2023/02/21 16:50:31;;;;;;;15.38;5.05;;;;;;;;;;5059355;28;20079;-82
2023/02/21 16:52:58;;;;;;;9.07;4.85;;;;;;;;;;5039666;28;20076;-80
2023/02/21 16:55:24;;;;;;;10.57;5.25;;;;;;;;;;5052302;28;20440;-80
2023/02/21 16:58:01;;;;;;;24.20;9.38;;;;;;;;;;5052848;28;20052;-80
2023/02/21 17:00:29;;;;;;;30.17;11.80;;;;;;;;;;5035178;28;20045;-80
2023/02/21 17:02:55;;;;;;;23.67;10.43;;;;;;;;;;5053190;28;20167;-80
2023/02/21 17:05:23;;;;;;;17.23;8.00;;;;;;;;;;5056263;28;20056;-80
2023/02/21 17:07:54;;;;;;;15.57;6.95;;;;;;;;;;5052236;28;20106;-80
2023/02/21 17:10:21;;;;;;;15.25;6.10;;;;;;;;;;5060091;28;20071;-80
2023/02/21 17:12:48;;;;;;;10.82;5.75;;;;;;;;;;5071847;28;20045;-80
2023/02/21 17:15:14;;;;;;;10.85;5.60;;;;;;;;;;5060066;28;20084;-81